Pagina principală
METAR-TAF:

METAR-TAF

Aeroporturi :

Gage, Oklahoma, Statele Unite ale Americii

Latitudine: 36-17-48N, longitudine: 099-46-08W, elevație: 677 m

Observații meteo curente

Raportul a fost făcut în urmă cu 55 de minute, la 21:53 UTC
Vânt 13 kt de la Vest cu rafale de până la 22 kt
Temperatură 36°C
Umiditate 35%
Presiune 1014 hPa
Vizibilitate: 16.1 km
Nori puțini la o înălțime de 7500 picior

METAR: KGAG 222153Z AUTO 26013G22KT 10SM FEW075 36/18 A2994 RMK AO2 SLP102 T03610178

Ora: 17:48 (22:48 UTC)


TAF: lipsă

Observații și prognoze meteo pentru peste 4.000 de aeroporturi (rapoarte METAR și TAF).

Stațiile disponibile sunt reprezentate pe hartă prin puncte galbene și roșii.

Țineți indicatorul mouse-ului pe punctul dorit pentru a vedea denumirea stației.

Apoi, faceți clic pentru a vedea observațiile și prognozele meteorologice.

Pentru a schimba harta: Pentru mărire, faceți clic pe butoanele verzi cu cruce neagră; pentru micșorare, pe butonul verde cu o liniuță; pentru hărți învecinate, pe săgețile verzi.


METAR-TAF: